Time;durP1;ratioP1;P1;durP2;ratioP2;P2;SDS_P1;SDS_P2;PMS_P1;PMS_P2;Temp;Humidity;BMP_temperature;BMP_pressure;BME280_temperature;BME280_humidity;BME280_pressure;Samples;Min_cycle;Max_cycle;Signal;HPM_P1;HPM_P2
2022/12/10 00:01:33;;;;;;;4.73;4.37;;;;;;;5.05;87.17;94068.50;4368738;32;20332;-58
2022/12/10 00:04:00;;;;;;;6.00;5.17;;;;;;;5.07;84.18;94066.38;4342591;32;20303;-58
2022/12/10 00:06:29;;;;;;;5.27;4.87;;;;;;;4.78;82.70;94064.75;4365977;32;20284;-59
2022/12/10 00:08:54;;;;;;;6.97;4.63;;;;;;;4.42;84.93;94079.50;4387662;32;20284;-58
2022/12/10 00:11:22;;;;;;;5.90;5.40;;;;;;;4.44;84.89;94091.28;4366797;32;20360;-58
2022/12/10 00:13:50;;;;;;;6.57;3.00;;;;;;;4.15;86.47;94093.28;4368126;32;20223;-58
2022/12/10 00:16:18;;;;;;;3.33;3.10;;;;;;;4.17;85.98;94090.34;4367300;32;20363;-58
2022/12/10 00:18:45;;;;;;;5.73;5.33;;;;;;;3.90;87.34;94085.72;4343478;32;20329;-58
2022/12/10 00:21:14;;;;;;;5.70;5.20;;;;;;;3.81;87.63;94082.94;4373473;32;20337;-60
2022/12/10 00:23:40;;;;;;;4.70;4.40;;;;;;;3.81;87.83;94082.94;4362571;32;20284;-59
2022/12/10 00:26:09;;;;;;;4.40;4.10;;;;;;;3.57;88.84;94069.84;4381166;32;20295;-59
2022/12/10 00:28:34;;;;;;;5.57;5.07;;;;;;;3.56;88.71;94070.91;4354432;32;20263;-59
2022/12/10 00:31:06;;;;;;;5.47;4.97;;;;;;;3.68;88.65;94073.94;4342706;32;20308;-59
2022/12/10 00:33:33;;;;;;;5.47;5.10;;;;;;;3.83;88.16;94075.56;4376017;32;20234;-58
2022/12/10 00:36:03;;;;;;;5.93;5.50;;;;;;;3.83;88.13;94067.69;4363826;32;20285;-59
2022/12/10 00:38:29;;;;;;;5.93;5.53;;;;;;;3.65;88.77;94068.47;4354703;32;20289;-58
2022/12/10 00:40:58;;;;;;;4.60;4.30;;;;;;;3.75;88.76;94076.19;4353661;32;20281;-58
2022/12/10 00:43:24;;;;;;;5.10;4.70;;;;;;;3.80;88.80;94081.38;4370676;32;20391;-58
2022/12/10 00:45:54;;;;;;;5.13;4.77;;;;;;;3.66;89.27;94083.12;4361393;32;20289;-58
2022/12/10 00:48:21;;;;;;;4.60;4.30;;;;;;;3.41;90.31;94084.19;4371685;32;20189;-58
2022/12/10 00:51:23;;;;;;;6.73;6.13;;;;;;;3.78;89.18;94081.66;4356807;32;20292;-58
2022/12/10 00:53:52;;;;;;;6.77;5.60;;;;;;;3.84;88.92;94085.00;4351836;32;20351;-58
2022/12/10 00:56:21;;;;;;;7.93;7.33;;;;;;;3.73;89.00;94091.44;4320160;32;20284;-58
2022/12/10 00:58:49;;;;;;;6.63;6.03;;;;;;;3.80;88.30;94095.28;4356845;32;20294;-58
2022/12/10 01:01:22;;;;;;;5.23;4.90;;;;;;;3.88;88.23;94093.09;4371280;32;20280;-58
2022/12/10 01:03:51;;;;;;;7.63;6.33;;;;;;;3.88;87.69;94093.87;4371898;32;20327;-58
2022/12/10 01:06:23;;;;;;;6.30;5.73;;;;;;;3.83;88.12;94106.25;4375010;32;20293;-58
2022/12/10 01:08:53;;;;;;;6.63;6.13;;;;;;;3.68;89.00;94113.25;4381279;32;20355;-58
2022/12/10 01:11:20;;;;;;;6.37;5.73;;;;;;;3.54;89.75;94114.19;4347985;32;20297;-59
2022/12/10 01:13:48;;;;;;;5.23;4.93;;;;;;;3.56;90.21;94112.84;4370704;32;20325;-58
2022/12/10 01:16:17;;;;;;;7.23;6.67;;;;;;;3.43;90.66;94109.06;4374703;32;20333;-58
2022/12/10 01:18:44;;;;;;;5.73;5.37;;;;;;;3.65;90.25;94108.56;4364192;32;20332;-58
2022/12/10 01:21:12;;;;;;;7.80;7.00;;;;;;;3.55;90.05;94107.88;4368487;32;20296;-60
2022/12/10 01:23:40;;;;;;;5.37;5.17;;;;;;;3.19;91.57;94103.03;4325922;32;20297;-58
2022/12/10 01:26:10;;;;;;;5.67;5.23;;;;;;;3.56;90.64;94101.59;4354824;32;20325;-58
2022/12/10 01:28:37;;;;;;;6.40;5.87;;;;;;;3.84;89.45;94105.97;4350886;32;20293;-58
2022/12/10 01:31:06;;;;;;;8.47;7.77;;;;;;;3.87;88.88;94099.41;4363417;32;20285;-58
2022/12/10 01:33:34;;;;;;;7.27;6.63;;;;;;;3.71;89.36;94094.34;4339692;32;20359;-58
2022/12/10 01:36:09;;;;;;;8.50;7.10;;;;;;;3.57;90.46;94100.53;4340660;32;20372;-58
2022/12/10 01:38:35;;;;;;;4.23;3.97;;;;;;;3.48;91.25;94099.59;4382546;32;20332;-58
2022/12/10 01:41:00;;;;;;;8.47;7.63;;;;;;;3.42;91.59;94106.72;4362307;32;20399;-59
2022/12/10 01:43:26;;;;;;;4.77;4.47;;;;;;;3.36;92.57;94108.59;4389259;32;20292;-58
2022/12/10 01:45:53;;;;;;;6.47;6.10;;;;;;;3.40;92.46;94109.63;4373461;32;20185;-58
2022/12/10 01:48:19;;;;;;;6.63;6.13;;;;;;;3.38;92.37;94118.81;4370081;32;20179;-58
2022/12/10 01:50:44;;;;;;;9.17;8.30;;;;;;;3.20;93.06;94115.06;4355011;32;20319;-58
2022/12/10 01:53:13;;;;;;;9.20;6.93;;;;;;;3.20;93.40;94122.91;4330386;32;20207;-58
2022/12/10 01:55:50;;;;;;;5.37;4.97;;;;;;;3.15;93.95;94122.97;4369686;32;20207;-58
2022/12/10 01:58:20;;;;;;;4.67;4.37;;;;;;;3.02;94.03;94134.88;4339410;32;20292;-58
2022/12/10 02:01:00;;;;;;;6.77;6.17;;;;;;;3.18;93.97;94129.50;4322668;32;20281;-58
2022/12/10 02:03:50;;;;;;;8.57;6.53;;;;;;;3.02;93.64;94128.84;4347774;32;20280;-58
2022/12/10 02:06:37;;;;;;;6.60;6.10;;;;;;;2.81;94.82;94138.72;4352648;32;20292;-58
2022/12/10 02:09:29;;;;;;;5.87;4.90;;;;;;;2.78;94.74;94141.09;4368863;32;20291;-59
2022/12/10 02:12:15;;;;;;;7.77;7.17;;;;;;;2.93;94.14;94140.97;4365451;32;20296;-57
2022/12/10 02:15:12;;;;;;;4.77;4.47;;;;;;;2.83;93.56;94138.44;4375485;32;20292;-59
2022/12/10 02:17:56;;;;;;;4.27;3.97;;;;;;;2.81;93.38;94133.47;4353344;32;20285;-58
2022/12/10 02:20:36;;;;;;;6.03;5.53;;;;;;;2.49;94.72;94136.59;4367106;32;20296;-57
2022/12/10 02:23:35;;;;;;;8.70;6.47;;;;;;;2.61;94.64;94123.94;4370729;32;20280;-58
2022/12/10 02:26:29;;;;;;;6.00;5.50;;;;;;;2.57;95.11;94128.16;4347812;32;20313;-58
2022/12/10 02:29:20;;;;;;;7.10;6.53;;;;;;;2.59;95.25;94130.50;4346842;32;20304;-58
2022/12/10 02:31:52;;;;;;;9.00;8.00;;;;;;;2.71;95.13;94123.84;4348492;32;20340;-58
2022/12/10 02:34:23;;;;;;;6.77;6.37;;;;;;;2.71;94.88;94134.31;4387370;32;20364;-58
2022/12/10 02:36:54;;;;;;;6.30;5.90;;;;;;;2.75;94.85;94130.09;4353634;32;20328;-58
2022/12/10 02:39:24;;;;;;;7.03;6.53;;;;;;;2.73;95.03;94124.34;4383568;32;20356;-58
2022/12/10 02:41:54;;;;;;;3.77;3.63;;;;;;;2.84;95.00;94114.59;4360376;32;20285;-58
2022/12/10 02:44:24;;;;;;;5.17;4.77;;;;;;;2.75;94.85;94119.63;4345460;32;20307;-58
2022/12/10 02:46:54;;;;;;;7.13;6.50;;;;;;;2.91;94.43;94109.81;4341440;32;20350;-58
2022/12/10 02:49:21;;;;;;;10.30;7.77;;;;;;;2.84;94.12;94114.59;4369330;32;20289;-59
2022/12/10 02:51:48;;;;;;;6.47;5.87;;;;;;;2.70;95.04;94116.28;4349805;32;20284;-58
2022/12/10 02:54:48;;;;;;;6.10;5.70;;;;;;;2.75;95.50;94103.16;4377998;32;20296;-58
2022/12/10 02:57:39;;;;;;;6.30;5.83;;;;;;;2.99;94.55;94103.22;4334799;32;20327;-58
2022/12/10 03:00:23;;;;;;;6.37;5.83;;;;;;;3.10;94.01;94107.31;4360790;32;20276;-58
2022/12/10 03:03:28;;;;;;;5.03;4.57;;;;;;;3.05;93.60;94102.13;4355825;32;20309;-58
2022/12/10 03:06:18;;;;;;;4.30;4.07;;;;;;;2.85;94.39;94102.28;4351255;32;20328;-58
2022/12/10 03:08:58;;;;;;;4.47;4.17;;;;;;;3.08;94.30;94101.56;4358324;32;20345;-58
2022/12/10 03:11:25;;;;;;;7.10;6.60;;;;;;;2.97;94.62;94094.84;4372201;32;20320;-59
2022/12/10 03:13:53;;;;;;;5.83;5.43;;;;;;;3.06;94.27;94101.06;4369971;32;20299;-58
2022/12/10 03:16:22;;;;;;;4.80;4.50;;;;;;;3.17;93.60;94105.12;4345840;32;20284;-58
2022/12/10 03:18:53;;;;;;;6.73;6.13;;;;;;;2.99;93.98;94100.59;4330342;32;20353;-59
2022/12/10 03:21:20;;;;;;;6.30;5.17;;;;;;;2.92;94.26;94097.50;4387344;32;20287;-59
2022/12/10 03:23:46;;;;;;;5.60;5.27;;;;;;;3.02;93.84;94094.81;4363708;32;20282;-59
2022/12/10 03:26:14;;;;;;;4.53;4.30;;;;;;;2.85;93.90;94089.19;4357691;32;20289;-58
2022/12/10 03:28:45;;;;;;;6.07;5.37;;;;;;;2.61;94.90;94100.38;4357886;32;20283;-63
2022/12/10 03:31:16;;;;;;;4.40;4.07;;;;;;;3.00;94.00;94094.28;4345546;32;20272;-59
2022/12/10 03:33:45;;;;;;;6.50;6.10;;;;;;;2.84;93.87;94098.09;4372589;32;20277;-59
2022/12/10 03:36:13;;;;;;;4.90;4.60;;;;;;;2.81;93.92;94096.81;4376718;32;20299;-58
2022/12/10 03:38:46;;;;;;;4.30;4.10;;;;;;;2.75;94.32;94090.06;4344270;32;20281;-58
2022/12/10 03:41:11;;;;;;;7.23;6.53;;;;;;;2.86;93.97;94096.00;4371132;32;20335;-60
2022/12/10 03:43:59;;;;;;;7.17;6.57;;;;;;;2.80;93.97;94094.47;4364066;32;20307;-58
2022/12/10 03:46:28;;;;;;;6.07;5.63;;;;;;;2.89;94.06;94098.06;4333903;32;20180;-58
2022/12/10 03:48:55;;;;;;;4.50;4.27;;;;;;;2.92;94.12;94094.87;4369576;32;20330;-58
2022/12/10 03:51:22;;;;;;;7.80;7.20;;;;;;;2.86;94.34;94098.62;4353477;32;20300;-58
2022/12/10 03:53:50;;;;;;;5.63;5.13;;;;;;;3.00;94.05;94095.06;4373285;32;20316;-58
2022/12/10 03:56:17;;;;;;;6.70;4.67;;;;;;;2.93;93.73;94099.06;4376508;32;20289;-58
2022/12/10 03:58:42;;;;;;;5.20;4.70;;;;;;;2.97;93.62;94100.06;4371627;32;20308;-57
2022/12/10 04:01:08;;;;;;;5.80;5.30;;;;;;;2.72;94.54;94088.75;4365135;32;20297;-58
2022/12/10 04:03:38;;;;;;;4.63;4.33;;;;;;;2.83;94.57;94089.47;4352328;32;20192;-58
2022/12/10 04:06:05;;;;;;;4.50;4.30;;;;;;;2.64;94.95;94091.97;4359533;32;20197;-58
2022/12/10 04:08:31;;;;;;;4.17;3.87;;;;;;;2.56;95.39;94089.16;4327153;32;20368;-58
2022/12/10 04:11:06;;;;;;;4.70;4.40;;;;;;;2.43;95.69;94085.34;4367450;32;20296;-59
2022/12/10 04:16:29;;;;;;;5.33;4.97;;;;;;;2.44;95.90;94104.44;4364096;32;20298;-58
2022/12/10 04:19:07;;;;;;;5.60;5.10;;;;;;;2.62;95.99;94115.03;4386850;32;20283;-58
2022/12/10 04:27:11;;;;;;;4.50;4.30;;;;;;;2.88;94.89;94104.38;4378567;32;20300;-58
2022/12/10 04:29:38;;;;;;;6.33;5.83;;;;;;;2.91;94.07;94106.44;4344988;32;20295;-58
2022/12/10 04:32:05;;;;;;;6.20;5.70;;;;;;;2.86;93.93;94106.47;4367862;32;20380;-58
2022/12/10 04:34:30;;;;;;;9.97;5.57;;;;;;;3.05;93.56;94112.59;4361737;32;20377;-58
2022/12/10 04:36:58;;;;;;;6.23;5.73;;;;;;;3.09;92.74;94109.16;4372536;32;20285;-58
2022/12/10 04:39:25;;;;;;;6.53;6.00;;;;;;;2.99;93.26;94106.59;4319386;32;20189;-58
2022/12/10 04:41:52;;;;;;;5.27;4.93;;;;;;;3.02;92.76;94102.66;4353143;32;20319;-58
2022/12/10 04:44:18;;;;;;;6.80;6.30;;;;;;;2.79;93.48;94111.22;4354218;32;20300;-57
2022/12/10 04:46:45;;;;;;;4.53;4.23;;;;;;;2.99;93.30;94113.69;4363499;32;20399;-58
2022/12/10 04:49:10;;;;;;;5.27;4.97;;;;;;;3.01;92.94;94122.06;4360061;32;20339;-58
2022/12/10 04:51:38;;;;;;;8.80;8.10;;;;;;;2.99;92.82;94118.91;4333481;32;20281;-58
2022/12/10 04:54:04;;;;;;;4.67;4.37;;;;;;;2.83;93.10;94127.97;4346166;32;20323;-58
2022/12/10 04:56:32;;;;;;;7.13;6.63;;;;;;;2.86;92.84;94125.59;4362392;32;20300;-58
2022/12/10 04:58:58;;;;;;;6.90;6.30;;;;;;;2.76;92.83;94121.19;4345568;32;20333;-58
2022/12/10 05:01:30;;;;;;;6.33;5.93;;;;;;;2.93;92.86;94110.31;4317690;32;20320;-58
2022/12/10 05:04:18;;;;;;;5.33;4.93;;;;;;;2.69;93.33;94106.88;4325735;32;20276;-58
2022/12/10 05:06:44;;;;;;;7.73;7.13;;;;;;;2.78;93.50;94112.28;4317280;32;20320;-58
2022/12/10 05:09:23;;;;;;;6.40;5.90;;;;;;;2.51;94.00;94112.75;4327646;32;20368;-58
2022/12/10 05:11:50;;;;;;;6.30;5.73;;;;;;;2.64;94.16;94117.37;4326568;32;20303;-58
2022/12/10 05:14:19;;;;;;;5.07;4.67;;;;;;;2.79;93.47;94119.09;4330747;32;20298;-58
2022/12/10 05:16:45;;;;;;;5.23;4.87;;;;;;;2.61;93.38;94110.06;4322604;32;20384;-58
2022/12/10 05:19:12;;;;;;;7.37;6.30;;;;;;;2.52;93.89;94120.31;4311196;32;20285;-65
2022/12/10 05:24:21;;;;;;;6.77;6.33;;;;;;;2.37;94.42;94117.81;4363472;32;20303;-58
2022/12/10 05:26:50;;;;;;;6.30;5.87;;;;;;;2.37;94.39;94109.97;4357524;32;20377;-58
2022/12/10 05:29:18;;;;;;;5.73;5.33;;;;;;;2.38;94.69;94104.47;4358355;32;20288;-58
2022/12/10 05:31:46;;;;;;;4.53;4.23;;;;;;;2.45;94.57;94098.16;4363043;32;20378;-58
2022/12/10 05:34:13;;;;;;;5.93;5.43;;;;;;;2.53;94.40;94100.94;4348368;32;20278;-58
2022/12/10 05:36:40;;;;;;;5.90;5.53;;;;;;;2.80;93.57;94105.72;4365171;32;20291;-58
2022/12/10 05:39:09;;;;;;;5.67;5.03;;;;;;;2.72;93.31;94109.69;4356677;32;20299;-58
2022/12/10 05:41:38;;;;;;;6.60;6.00;;;;;;;2.68;93.14;94113.94;4340329;32;20307;-58
2022/12/10 05:44:04;;;;;;;3.30;3.07;;;;;;;2.63;93.17;94115.81;4360464;32;20277;-58
2022/12/10 05:46:33;;;;;;;5.37;4.90;;;;;;;2.36;93.43;94121.47;4372033;32;20273;-58
2022/12/10 05:49:00;;;;;;;5.57;5.20;;;;;;;2.48;93.93;94124.56;4342661;32;20272;-58
2022/12/10 05:51:30;;;;;;;5.13;4.60;;;;;;;2.40;94.10;94125.13;4332278;32;20319;-58
2022/12/10 05:53:57;;;;;;;10.90;5.83;;;;;;;2.51;94.48;94123.22;4349673;32;20297;-58
2022/12/10 05:56:25;;;;;;;4.37;3.87;;;;;;;2.73;93.99;94121.75;4372145;32;20288;-58
2022/12/10 05:58:57;;;;;;;4.67;4.37;;;;;;;2.62;93.69;94125.50;4347739;32;20347;-58
2022/12/10 06:01:25;;;;;;;5.77;5.13;;;;;;;2.79;93.65;94126.94;4358141;32;20291;-59
2022/12/10 06:03:52;;;;;;;3.97;3.67;;;;;;;2.82;93.15;94136.88;4342352;32;20318;-59
2022/12/10 06:06:22;;;;;;;5.97;5.67;;;;;;;3.08;92.21;94127.75;4359424;32;20280;-58
2022/12/10 06:08:50;;;;;;;4.07;3.83;;;;;;;3.11;91.42;94135.06;4361586;32;20277;-58
2022/12/10 06:11:17;;;;;;;6.57;5.07;;;;;;;3.10;91.25;94138.75;4368675;32;20305;-59
2022/12/10 06:13:42;;;;;;;7.00;6.37;;;;;;;3.13;91.06;94140.78;4357039;32;20284;-60
2022/12/10 06:16:11;;;;;;;8.13;7.43;;;;;;;3.08;91.06;94149.50;4374731;32;20281;-59
2022/12/10 06:18:37;;;;;;;6.83;6.23;;;;;;;2.99;91.11;94140.66;4351925;32;20299;-59
2022/12/10 06:21:10;;;;;;;4.47;4.07;;;;;;;2.87;91.63;94144.69;4349210;32;20299;-58
2022/12/10 06:23:37;;;;;;;7.00;6.50;;;;;;;2.87;92.27;94129.78;4353676;32;20209;-59
2022/12/10 06:26:10;;;;;;;7.67;6.97;;;;;;;2.86;92.50;94135.28;4346920;32;20310;-59
2022/12/10 06:28:37;;;;;;;4.80;4.60;;;;;;;2.76;93.02;94130.88;4358298;32;20293;-58
2022/12/10 06:31:02;;;;;;;5.57;5.07;;;;;;;2.88;92.41;94128.72;4312734;32;20292;-57
2022/12/10 06:33:28;;;;;;;7.03;6.47;;;;;;;2.60;93.04;94132.84;4347957;32;20342;-57
2022/12/10 06:35:53;;;;;;;7.03;6.53;;;;;;;2.58;94.05;94136.78;4362916;32;20196;-58
2022/12/10 06:38:20;;;;;;;6.80;5.90;;;;;;;2.74;93.87;94127.75;4338172;32;20216;-58
2022/12/10 06:40:47;;;;;;;6.53;6.13;;;;;;;2.66;94.14;94133.59;4356241;32;20188;-56
2022/12/10 06:43:13;;;;;;;13.90;6.27;;;;;;;2.73;93.53;94132.22;4343231;32;20290;-57
2022/12/10 06:45:41;;;;;;;7.23;6.73;;;;;;;2.67;94.04;94130.72;4374150;32;20284;-58
2022/12/10 06:48:08;;;;;;;4.77;4.53;;;;;;;2.66;94.31;94137.00;4391566;32;20281;-58
2022/12/10 06:50:34;;;;;;;4.60;4.33;;;;;;;2.56;94.23;94139.66;4374700;32;20419;-58
2022/12/10 06:53:00;;;;;;;5.10;4.83;;;;;;;2.75;93.75;94147.66;4363321;32;20284;-58
2022/12/10 06:55:27;;;;;;;4.17;3.97;;;;;;;2.71;93.94;94134.31;4373365;32;20273;-58
2022/12/10 06:57:53;;;;;;;5.27;4.90;;;;;;;2.43;94.28;94135.06;4364772;32;20200;-58
2022/12/10 07:00:19;;;;;;;5.97;5.37;;;;;;;2.71;93.77;94136.94;4353752;32;20277;-57
2022/12/10 07:02:45;;;;;;;4.93;4.73;;;;;;;2.66;93.98;94144.06;4371053;32;20316;-58
2022/12/10 07:05:10;;;;;;;6.20;5.60;;;;;;;2.80;92.90;94138.97;4376502;32;20272;-57
2022/12/10 07:07:37;;;;;;;6.37;5.97;;;;;;;2.49;93.65;94141.84;4372062;32;20290;-58
2022/12/10 07:10:05;;;;;;;5.63;3.60;;;;;;;2.71;92.97;94139.56;4368983;32;20379;-56
2022/12/10 07:12:31;;;;;;;5.07;4.70;;;;;;;2.85;92.67;94136.34;4366589;32;20190;-58
2022/12/10 07:14:58;;;;;;;5.03;4.73;;;;;;;2.78;92.31;94135.84;4367200;32;20280;-58
2022/12/10 07:17:23;;;;;;;6.40;6.10;;;;;;;2.90;91.83;94133.69;4380822;32;20307;-56
2022/12/10 07:19:49;;;;;;;7.53;6.00;;;;;;;2.72;92.45;94141.13;4344535;32;20301;-58
2022/12/10 07:22:16;;;;;;;6.07;5.57;;;;;;;2.71;92.29;94146.63;4361221;32;20205;-57
2022/12/10 07:24:42;;;;;;;6.07;5.67;;;;;;;2.84;92.36;94142.63;4366028;32;20303;-58
2022/12/10 07:27:09;;;;;;;5.73;5.33;;;;;;;2.96;91.94;94143.03;4368854;32;20371;-56
2022/12/10 07:29:36;;;;;;;3.63;3.43;;;;;;;2.78;92.32;94147.09;4337427;32;20199;-56
2022/12/10 07:32:03;;;;;;;4.87;3.63;;;;;;;2.78;92.35;94148.94;4352747;32;20385;-58
2022/12/10 07:34:31;;;;;;;5.43;5.13;;;;;;;2.88;92.07;94143.66;4335718;32;20293;-58
2022/12/10 07:36:57;;;;;;;5.43;5.03;;;;;;;2.52;92.50;94148.34;4358484;32;20321;-58
2022/12/10 07:39:22;;;;;;;4.67;4.37;;;;;;;2.76;92.32;94152.63;4353822;32;20331;-58
2022/12/10 07:41:52;;;;;;;6.33;5.83;;;;;;;2.77;91.33;94156.00;4356117;32;20276;-58
2022/12/10 07:44:20;;;;;;;5.43;5.03;;;;;;;2.82;90.79;94149.97;4337993;32;20199;-58
2022/12/10 07:46:47;;;;;;;5.57;4.60;;;;;;;2.77;91.49;94142.94;4349384;32;20350;-58
2022/12/10 07:49:12;;;;;;;10.20;4.50;;;;;;;2.74;91.21;94149.50;4338324;32;20343;-58
2022/12/10 07:51:39;;;;;;;3.57;3.37;;;;;;;2.95;90.46;94155.34;4368385;32;20285;-56
2022/12/10 07:54:05;;;;;;;4.57;4.37;;;;;;;2.86;90.95;94156.22;4360421;32;20215;-58
2022/12/10 07:56:32;;;;;;;4.60;4.20;;;;;;;2.73;90.46;94147.91;4372233;32;20307;-58
2022/12/10 07:58:59;;;;;;;4.00;3.70;;;;;;;2.65;91.07;94145.91;4386110;32;20284;-57
2022/12/10 08:01:25;;;;;;;3.70;3.43;;;;;;;2.72;90.64;94145.56;4331860;32;20339;-57
2022/12/10 08:03:56;;;;;;;3.93;3.67;;;;;;;2.58;91.39;94142.00;4358386;32;20300;-58
2022/12/10 08:06:27;;;;;;;4.30;3.90;;;;;;;2.50;92.03;94143.38;4352776;32;20291;-57
2022/12/10 08:08:52;;;;;;;4.90;4.50;;;;;;;2.41;91.81;94152.84;4350169;32;20295;-57
2022/12/10 08:11:20;;;;;;;3.00;2.90;;;;;;;2.52;90.87;94151.72;4373797;32;20271;-56
2022/12/10 08:13:46;;;;;;;3.73;3.53;;;;;;;2.45;91.45;94151.28;4367395;32;20192;-55
2022/12/10 08:16:17;;;;;;;4.93;4.63;;;;;;;2.58;91.76;94145.41;4328806;32;20289;-58
2022/12/10 08:18:44;;;;;;;4.17;3.90;;;;;;;2.70;91.87;94142.47;4366040;32;20351;-59
2022/12/10 08:21:14;;;;;;;5.10;4.53;;;;;;;2.78;91.57;94143.72;4381734;32;20294;-58
2022/12/10 08:23:42;;;;;;;3.50;3.30;;;;;;;2.79;91.98;94147.87;4365243;32;20289;-58
2022/12/10 08:26:11;;;;;;;4.07;3.87;;;;;;;2.97;91.45;94157.69;4339443;32;20278;-58
2022/12/10 08:28:40;;;;;;;3.80;3.60;;;;;;;2.96;91.05;94156.13;4331486;32;20289;-58
2022/12/10 08:31:09;;;;;;;5.17;4.70;;;;;;;2.66;90.43;94162.41;4367824;32;20283;-58
2022/12/10 08:33:37;;;;;;;2.77;2.67;;;;;;;2.57;90.72;94159.56;4323352;32;20276;-57
2022/12/10 08:36:05;;;;;;;3.77;3.57;;;;;;;2.65;90.92;94163.44;4371507;32;20319;-58
2022/12/10 08:38:31;;;;;;;3.23;3.03;;;;;;;2.58;91.54;94165.56;4358516;32;20288;-58
2022/12/10 08:40:57;;;;;;;3.60;3.40;;;;;;;2.63;91.63;94163.72;4362324;32;20362;-55
2022/12/10 08:43:24;;;;;;;3.97;3.70;;;;;;;2.74;91.98;94159.97;4364553;32;20196;-55
2022/12/10 08:45:50;;;;;;;5.50;4.80;;;;;;;2.63;91.95;94158.47;4357440;32;20281;-58
2022/12/10 08:48:16;;;;;;;4.40;4.10;;;;;;;2.66;92.40;94163.19;4354965;32;20300;-58
2022/12/10 08:50:43;;;;;;;5.17;4.67;;;;;;;2.62;92.16;94164.75;4361632;32;20326;-59
2022/12/10 08:53:08;;;;;;;5.80;5.37;;;;;;;2.52;92.59;94167.44;4365816;32;20238;-55
2022/12/10 08:55:39;;;;;;;4.50;4.30;;;;;;;2.58;92.92;94171.59;4364820;32;20368;-53
2022/12/10 08:58:07;;;;;;;4.57;4.17;;;;;;;2.52;92.44;94170.06;4332379;32;20203;-58
2022/12/10 09:00:32;;;;;;;5.90;5.60;;;;;;;2.51;92.26;94172.94;4355271;32;20277;-58
2022/12/10 09:02:59;;;;;;;6.33;4.80;;;;;;;2.40;92.15;94180.84;4359127;32;20338;-47
2022/12/10 09:05:25;;;;;;;5.20;4.60;;;;;;;4.86;100.00;94159.72;4366288;32;20189;-47
2022/12/10 09:07:51;;;;;;;6.90;4.77;;;;;;;5.67;100.00;94163.66;4369923;32;20331;-45
2022/12/10 09:10:19;;;;;;;3.10;2.90;;;;;;;8.64;100.00;94153.50;4345475;32;20282;-46
2022/12/10 09:12:44;;;;;;;4.67;4.37;;;;;;;9.52;100.00;94167.16;4358683;32;20239;-48
2022/12/10 09:15:12;;;;;;;5.97;5.43;;;;;;;10.09;95.89;94155.44;4372960;32;20387;-59
2022/12/10 09:17:39;;;;;;;5.57;5.07;;;;;;;7.33;71.57;94177.03;4348270;32;20203;-59
2022/12/10 09:20:06;;;;;;;4.30;3.93;;;;;;;5.60;75.73;94189.56;4379852;32;20285;-56
2022/12/10 09:22:32;;;;;;;3.70;3.50;;;;;;;4.69;80.33;94199.66;4358514;32;22589;-52
2022/12/10 09:24:59;;;;;;;3.73;3.43;;;;;;;4.12;83.42;94199.56;4364908;32;20322;-56
2022/12/10 09:27:26;;;;;;;4.13;3.87;;;;;;;3.91;84.69;94200.87;4354628;32;20462;-57
2022/12/10 09:29:53;;;;;;;4.90;4.50;;;;;;;3.44;85.89;94206.84;4336871;32;20299;-58
2022/12/10 09:32:18;;;;;;;4.57;4.20;;;;;;;3.54;86.60;94208.56;4372808;32;20364;-58
2022/12/10 09:34:45;;;;;;;5.47;5.17;;;;;;;3.44;87.23;94194.50;4349911;32;20332;-57
2022/12/10 09:37:12;;;;;;;5.40;5.00;;;;;;;3.27;88.11;94199.38;4330940;32;20204;-58
2022/12/10 09:39:38;;;;;;;6.30;5.80;;;;;;;3.11;89.02;94195.31;4338252;32;20364;-58
2022/12/10 09:42:16;;;;;;;6.77;5.97;;;;;;;3.12;88.78;94196.84;4335216;32;20378;-58
2022/12/10 09:45:03;;;;;;;5.90;5.23;;;;;;;3.02;88.72;94202.19;4366751;32;20332;-62
2022/12/10 09:47:54;;;;;;;4.33;4.13;;;;;;;2.78;89.34;94198.69;4370653;32;20335;-57
2022/12/10 09:50:53;;;;;;;4.50;4.30;;;;;;;2.57;89.96;94198.81;4356180;32;20337;-58
2022/12/10 09:53:20;;;;;;;3.83;3.70;;;;;;;2.42;91.25;94204.12;4363466;32;20360;-57
2022/12/10 09:55:48;;;;;;;4.40;4.17;;;;;;;2.31;92.45;94194.75;4362288;32;20289;-58
2022/12/10 09:58:23;;;;;;;5.40;4.57;;;;;;;2.42;92.22;94194.47;4364775;32;20295;-58
2022/12/10 10:01:05;;;;;;;4.83;4.43;;;;;;;2.42;92.57;94191.06;4361809;32;20327;-58
2022/12/10 10:03:41;;;;;;;5.20;4.80;;;;;;;2.56;91.69;94192.03;4345914;32;20299;-58
2022/12/10 10:06:16;;;;;;;3.30;3.20;;;;;;;2.53;91.93;94195.16;4362964;32;20279;-58
2022/12/10 10:09:04;;;;;;;6.80;6.30;;;;;;;2.47;92.61;94187.63;4352380;32;20287;-59
2022/12/10 10:11:36;;;;;;;6.70;6.23;;;;;;;2.29;93.15;94199.47;4374025;32;20328;-57
2022/12/10 10:14:08;;;;;;;5.20;4.90;;;;;;;2.49;92.35;94196.78;4368317;32;20281;-58
2022/12/10 10:16:45;;;;;;;5.03;4.67;;;;;;;2.53;92.58;94186.53;4347840;32;20280;-57
2022/12/10 10:19:31;;;;;;;5.37;5.07;;;;;;;2.67;92.06;94187.53;4352409;32;20273;-58
2022/12/10 10:21:57;;;;;;;6.97;6.57;;;;;;;2.75;91.89;94186.91;4358904;32;20290;-58
2022/12/10 10:24:28;;;;;;;4.67;4.47;;;;;;;2.77;91.90;94190.06;4386213;32;20291;-58
2022/12/10 10:27:01;;;;;;;6.53;6.13;;;;;;;2.81;91.59;94185.06;4377928;32;20292;-58
2022/12/10 10:29:27;;;;;;;7.17;6.57;;;;;;;2.66;91.51;94191.19;4360611;32;20285;-58
2022/12/10 10:32:17;;;;;;;6.63;6.23;;;;;;;2.78;91.56;94190.84;4361196;32;20297;-58
2022/12/10 10:34:46;;;;;;;6.93;5.57;;;;;;;2.78;91.90;94188.22;4375502;32;20303;-58
2022/12/10 10:37:25;;;;;;;5.90;5.50;;;;;;;2.89;91.12;94184.50;4354185;32;20281;-59
2022/12/10 10:39:51;;;;;;;6.03;5.57;;;;;;;3.03;91.22;94186.22;4347661;32;20281;-58
2022/12/10 10:42:41;;;;;;;6.13;5.67;;;;;;;2.95;90.90;94186.00;4352748;32;20292;-58
2022/12/10 10:45:42;;;;;;;6.60;6.20;;;;;;;2.80;91.61;94183.50;4349068;32;20284;-58
2022/12/10 10:48:20;;;;;;;8.40;7.67;;;;;;;2.96;91.36;94177.87;4359357;32;20284;-58
2022/12/10 10:50:51;;;;;;;5.57;5.27;;;;;;;2.85;91.94;94179.00;4343463;32;20327;-56
2022/12/10 10:53:30;;;;;;;7.57;6.63;;;;;;;2.68;92.52;94176.00;4363108;32;20348;-58
2022/12/10 10:56:05;;;;;;;5.73;5.30;;;;;;;2.69;92.60;94175.72;4372760;32;20332;-58
2022/12/10 10:58:33;;;;;;;4.83;4.53;;;;;;;2.62;93.07;94177.84;4361705;32;20444;-58
2022/12/10 11:01:06;;;;;;;4.70;4.50;;;;;;;2.83;92.50;94172.47;4358143;32;20278;-57
2022/12/10 11:03:36;;;;;;;3.67;3.50;;;;;;;2.92;91.60;94170.81;4358345;32;20363;-57
2022/12/10 11:06:07;;;;;;;6.93;6.17;;;;;;;2.90;91.74;94170.34;4362556;32;20412;-58
2022/12/10 11:08:37;;;;;;;5.13;4.67;;;;;;;2.94;91.72;94172.13;4366295;32;20343;-58
2022/12/10 11:11:05;;;;;;;8.70;5.77;;;;;;;3.00;91.81;94165.00;4343811;32;20361;-58
2022/12/10 11:13:35;;;;;;;6.40;5.93;;;;;;;2.77;92.51;94158.62;4349523;32;20288;-58
2022/12/10 11:16:19;;;;;;;5.40;4.97;;;;;;;2.88;93.17;94160.13;4361241;32;20298;-58
2022/12/10 11:19:04;;;;;;;5.57;5.17;;;;;;;3.08;92.61;94169.69;4322579;32;20293;-57
2022/12/10 11:21:32;;;;;;;4.73;4.33;;;;;;;2.99;91.77;94171.31;4373727;32;20292;-59
2022/12/10 11:23:58;;;;;;;6.13;5.60;;;;;;;2.97;91.67;94173.41;4346896;32;20296;-58
2022/12/10 11:26:46;;;;;;;4.10;3.50;;;;;;;3.09;92.06;94158.12;4361138;32;20298;-58
2022/12/10 11:29:24;;;;;;;6.67;6.30;;;;;;;2.97;91.54;94162.94;4347982;32;20292;-59
2022/12/10 11:32:27;;;;;;;6.13;5.53;;;;;;;3.09;91.83;94160.75;4369846;32;20275;-57
2022/12/10 11:35:17;;;;;;;4.80;4.33;;;;;;;2.94;92.27;94166.09;4347134;32;20347;-57
2022/12/10 11:38:10;;;;;;;3.27;3.07;;;;;;;3.09;91.75;94160.75;4355116;32;20269;-60
2022/12/10 11:40:42;;;;;;;5.93;5.53;;;;;;;3.06;91.74;94156.84;4368385;32;20281;-58
2022/12/10 11:43:25;;;;;;;5.77;5.13;;;;;;;2.95;92.37;94170.28;4348107;32;20302;-58
2022/12/10 11:46:19;;;;;;;8.90;6.03;;;;;;;3.03;91.53;94165.25;4359520;32;20295;-58
2022/12/10 11:49:26;;;;;;;5.37;4.83;;;;;;;3.10;91.49;94163.09;4358374;32;20311;-57
2022/12/10 11:52:19;;;;;;;4.17;3.90;;;;;;;3.24;90.96;94155.37;4363377;32;20287;-57
2022/12/10 11:55:24;;;;;;;5.73;5.23;;;;;;;3.25;91.15;94154.31;4349479;32;20364;-61
2022/12/10 11:58:27;;;;;;;5.40;5.10;;;;;;;2.99;92.32;94159.00;4334063;32;20280;-58
2022/12/10 12:01:40;;;;;;;5.83;5.23;;;;;;;3.18;91.81;94156.47;4359767;32;20277;-56
2022/12/10 12:04:20;;;;;;;6.90;6.43;;;;;;;3.07;92.45;94163.66;4298316;32;20285;-55
2022/12/10 12:07:14;;;;;;;4.50;4.20;;;;;;;3.31;91.40;94160.31;4335329;32;20348;-58
2022/12/10 12:10:05;;;;;;;5.20;4.70;;;;;;;3.32;91.13;94159.25;4359624;32;20281;-58
2022/12/10 12:12:58;;;;;;;7.03;6.07;;;;;;;3.24;91.78;94157.22;4353573;32;20277;-56
2022/12/10 12:15:39;;;;;;;6.07;5.77;;;;;;;3.30;92.00;94166.59;4361900;32;20284;-58